sensor_id;sensor_type;location;lat;lon;timestamp;P1;durP1;ratioP1;P2;durP2;ratioP2
1471;SDS011;963;42.644;23.336;2022-12-18T00:00:45;7.03;;;4.77;;
1471;SDS011;963;42.644;23.336;2022-12-18T00:03:14;5.40;;;4.83;;
1471;SDS011;963;42.644;23.336;2022-12-18T00:05:47;6.00;;;5.03;;
1471;SDS011;963;42.644;23.336;2022-12-18T00:08:13;5.00;;;4.50;;
1471;SDS011;963;42.644;23.336;2022-12-18T00:10:39;5.10;;;4.20;;
1471;SDS011;963;42.644;23.336;2022-12-18T00:13:04;5.50;;;4.90;;
1471;SDS011;963;42.644;23.336;2022-12-18T00:15:30;5.63;;;4.77;;
1471;SDS011;963;42.644;23.336;2022-12-18T00:17:55;5.40;;;4.90;;
1471;SDS011;963;42.644;23.336;2022-12-18T00:20:20;6.47;;;4.83;;
1471;SDS011;963;42.644;23.336;2022-12-18T00:22:50;7.97;;;4.97;;
1471;SDS011;963;42.644;23.336;2022-12-18T00:25:16;7.70;;;5.47;;
1471;SDS011;963;42.644;23.336;2022-12-18T00:27:42;6.53;;;5.53;;
1471;SDS011;963;42.644;23.336;2022-12-18T00:30:07;6.03;;;4.90;;
1471;SDS011;963;42.644;23.336;2022-12-18T00:32:33;5.93;;;4.90;;
1471;SDS011;963;42.644;23.336;2022-12-18T00:34:59;7.17;;;5.27;;
1471;SDS011;963;42.644;23.336;2022-12-18T00:37:24;6.13;;;5.10;;
1471;SDS011;963;42.644;23.336;2022-12-18T00:39:49;5.97;;;5.23;;
1471;SDS011;963;42.644;23.336;2022-12-18T00:42:15;5.47;;;4.60;;
1471;SDS011;963;42.644;23.336;2022-12-18T00:44:59;6.73;;;5.50;;
1471;SDS011;963;42.644;23.336;2022-12-18T00:47:24;6.03;;;5.23;;
1471;SDS011;963;42.644;23.336;2022-12-18T00:49:50;7.70;;;5.43;;
1471;SDS011;963;42.644;23.336;2022-12-18T00:52:15;7.20;;;5.90;;
1471;SDS011;963;42.644;23.336;2022-12-18T00:54:41;6.87;;;5.40;;
1471;SDS011;963;42.644;23.336;2022-12-18T00:57:06;6.40;;;5.80;;
1471;SDS011;963;42.644;23.336;2022-12-18T00:59:31;7.50;;;5.67;;
1471;SDS011;963;42.644;23.336;2022-12-18T01:01:57;6.73;;;5.47;;
1471;SDS011;963;42.644;23.336;2022-12-18T01:04:22;6.97;;;5.47;;
1471;SDS011;963;42.644;23.336;2022-12-18T01:06:47;8.63;;;5.30;;
1471;SDS011;963;42.644;23.336;2022-12-18T01:09:13;8.23;;;6.30;;
1471;SDS011;963;42.644;23.336;2022-12-18T01:11:39;6.23;;;5.63;;
1471;SDS011;963;42.644;23.336;2022-12-18T01:14:04;7.90;;;6.23;;
1471;SDS011;963;42.644;23.336;2022-12-18T01:16:30;7.33;;;5.80;;
1471;SDS011;963;42.644;23.336;2022-12-18T01:18:55;9.00;;;6.80;;
1471;SDS011;963;42.644;23.336;2022-12-18T01:21:21;8.60;;;6.57;;
1471;SDS011;963;42.644;23.336;2022-12-18T01:23:50;8.20;;;6.50;;
1471;SDS011;963;42.644;23.336;2022-12-18T01:26:17;8.63;;;6.30;;
1471;SDS011;963;42.644;23.336;2022-12-18T01:28:43;15.97;;;6.93;;
1471;SDS011;963;42.644;23.336;2022-12-18T01:31:19;8.20;;;6.73;;
1471;SDS011;963;42.644;23.336;2022-12-18T01:33:46;10.03;;;6.90;;
1471;SDS011;963;42.644;23.336;2022-12-18T01:36:15;7.23;;;6.30;;
1471;SDS011;963;42.644;23.336;2022-12-18T01:38:45;8.60;;;6.50;;
1471;SDS011;963;42.644;23.336;2022-12-18T01:41:11;7.07;;;5.80;;
1471;SDS011;963;42.644;23.336;2022-12-18T01:43:43;7.30;;;6.10;;
1471;SDS011;963;42.644;23.336;2022-12-18T01:46:17;8.87;;;6.47;;
1471;SDS011;963;42.644;23.336;2022-12-18T01:48:45;10.30;;;5.80;;
1471;SDS011;963;42.644;23.336;2022-12-18T01:51:12;9.70;;;5.90;;
1471;SDS011;963;42.644;23.336;2022-12-18T01:53:39;7.83;;;6.20;;
1471;SDS011;963;42.644;23.336;2022-12-18T01:56:06;8.47;;;6.40;;
1471;SDS011;963;42.644;23.336;2022-12-18T01:58:41;7.70;;;5.77;;
1471;SDS011;963;42.644;23.336;2022-12-18T02:01:12;8.80;;;7.20;;
1471;SDS011;963;42.644;23.336;2022-12-18T02:03:40;6.70;;;6.00;;
1471;SDS011;963;42.644;23.336;2022-12-18T02:22:20;8.17;;;6.77;;
1471;SDS011;963;42.644;23.336;2022-12-18T02:27:38;8.60;;;6.70;;
1471;SDS011;963;42.644;23.336;2022-12-18T02:30:06;11.63;;;7.53;;
1471;SDS011;963;42.644;23.336;2022-12-18T02:32:37;7.87;;;6.10;;
1471;SDS011;963;42.644;23.336;2022-12-18T02:35:07;9.93;;;7.20;;
1471;SDS011;963;42.644;23.336;2022-12-18T02:37:37;8.37;;;6.47;;
1471;SDS011;963;42.644;23.336;2022-12-18T02:40:05;9.73;;;6.90;;
1471;SDS011;963;42.644;23.336;2022-12-18T02:42:32;7.87;;;6.47;;
1471;SDS011;963;42.644;23.336;2022-12-18T02:44:58;8.30;;;6.40;;
1471;SDS011;963;42.644;23.336;2022-12-18T02:47:32;8.10;;;6.00;;
1471;SDS011;963;42.644;23.336;2022-12-18T03:00:41;8.77;;;6.70;;
1471;SDS011;963;42.644;23.336;2022-12-18T03:06:08;9.13;;;5.93;;
1471;SDS011;963;42.644;23.336;2022-12-18T03:08:41;10.03;;;5.83;;
1471;SDS011;963;42.644;23.336;2022-12-18T03:11:10;7.17;;;5.83;;
1471;SDS011;963;42.644;23.336;2022-12-18T03:16:24;9.00;;;6.37;;
1471;SDS011;963;42.644;23.336;2022-12-18T03:18:55;6.67;;;5.97;;
1471;SDS011;963;42.644;23.336;2022-12-18T03:21:26;11.30;;;6.77;;
1471;SDS011;963;42.644;23.336;2022-12-18T03:23:58;8.90;;;6.20;;
1471;SDS011;963;42.644;23.336;2022-12-18T03:26:24;6.87;;;5.87;;
1471;SDS011;963;42.644;23.336;2022-12-18T03:28:53;8.03;;;6.23;;
1471;SDS011;963;42.644;23.336;2022-12-18T03:31:23;10.30;;;6.83;;
1471;SDS011;963;42.644;23.336;2022-12-18T03:33:54;8.60;;;7.23;;
1471;SDS011;963;42.644;23.336;2022-12-18T03:36:22;8.40;;;5.90;;
1471;SDS011;963;42.644;23.336;2022-12-18T03:38:49;7.73;;;6.00;;
1471;SDS011;963;42.644;23.336;2022-12-18T03:41:16;7.10;;;6.07;;
1471;SDS011;963;42.644;23.336;2022-12-18T03:43:55;7.47;;;6.63;;
1471;SDS011;963;42.644;23.336;2022-12-18T03:46:41;8.10;;;5.73;;
1471;SDS011;963;42.644;23.336;2022-12-18T03:49:56;5.77;;;5.20;;
1471;SDS011;963;42.644;23.336;2022-12-18T03:54:57;8.70;;;5.93;;
1471;SDS011;963;42.644;23.336;2022-12-18T03:57:26;7.20;;;5.80;;
1471;SDS011;963;42.644;23.336;2022-12-18T03:59:56;6.20;;;5.30;;
1471;SDS011;963;42.644;23.336;2022-12-18T04:02:24;6.83;;;5.40;;
1471;SDS011;963;42.644;23.336;2022-12-18T04:04:51;8.03;;;5.57;;
1471;SDS011;963;42.644;23.336;2022-12-18T04:07:20;5.97;;;4.70;;
1471;SDS011;963;42.644;23.336;2022-12-18T04:09:47;6.00;;;5.00;;
1471;SDS011;963;42.644;23.336;2022-12-18T04:12:14;7.13;;;5.80;;
1471;SDS011;963;42.644;23.336;2022-12-18T04:14:39;8.63;;;5.40;;
1471;SDS011;963;42.644;23.336;2022-12-18T04:17:05;6.03;;;4.90;;
1471;SDS011;963;42.644;23.336;2022-12-18T04:19:30;5.20;;;4.67;;
1471;SDS011;963;42.644;23.336;2022-12-18T04:21:56;7.00;;;5.90;;
1471;SDS011;963;42.644;23.336;2022-12-18T04:24:21;7.20;;;5.67;;
1471;SDS011;963;42.644;23.336;2022-12-18T04:26:47;7.40;;;5.60;;
1471;SDS011;963;42.644;23.336;2022-12-18T04:29:12;6.97;;;5.17;;
1471;SDS011;963;42.644;23.336;2022-12-18T04:31:37;6.83;;;5.30;;
1471;SDS011;963;42.644;23.336;2022-12-18T04:34:03;7.77;;;5.60;;
1471;SDS011;963;42.644;23.336;2022-12-18T04:36:29;6.90;;;5.50;;
1471;SDS011;963;42.644;23.336;2022-12-18T04:38:54;6.23;;;5.20;;
1471;SDS011;963;42.644;23.336;2022-12-18T04:41:20;7.90;;;5.37;;
1471;SDS011;963;42.644;23.336;2022-12-18T04:43:45;6.77;;;6.07;;
1471;SDS011;963;42.644;23.336;2022-12-18T04:46:11;8.60;;;6.20;;
1471;SDS011;963;42.644;23.336;2022-12-18T04:48:36;7.30;;;6.17;;
1471;SDS011;963;42.644;23.336;2022-12-18T04:51:02;8.50;;;6.13;;
1471;SDS011;963;42.644;23.336;2022-12-18T04:53:28;6.60;;;5.20;;
1471;SDS011;963;42.644;23.336;2022-12-18T04:56:10;7.50;;;6.30;;
1471;SDS011;963;42.644;23.336;2022-12-18T04:58:40;8.40;;;6.70;;
1471;SDS011;963;42.644;23.336;2022-12-18T05:01:07;7.63;;;6.07;;
1471;SDS011;963;42.644;23.336;2022-12-18T05:03:34;8.73;;;6.57;;
1471;SDS011;963;42.644;23.336;2022-12-18T05:06:00;9.93;;;7.13;;
1471;SDS011;963;42.644;23.336;2022-12-18T05:08:26;11.17;;;6.60;;
1471;SDS011;963;42.644;23.336;2022-12-18T05:11:25;9.80;;;7.20;;
1471;SDS011;963;42.644;23.336;2022-12-18T05:13:44;9.50;;;7.80;;
1471;SDS011;963;42.644;23.336;2022-12-18T05:16:10;11.03;;;6.90;;
1471;SDS011;963;42.644;23.336;2022-12-18T05:18:36;10.07;;;6.90;;
1471;SDS011;963;42.644;23.336;2022-12-18T05:21:02;10.27;;;6.93;;
1471;SDS011;963;42.644;23.336;2022-12-18T05:23:28;12.00;;;7.50;;
1471;SDS011;963;42.644;23.336;2022-12-18T05:26:01;17.47;;;7.30;;
1471;SDS011;963;42.644;23.336;2022-12-18T05:28:29;10.67;;;7.67;;
1471;SDS011;963;42.644;23.336;2022-12-18T05:30:57;10.37;;;7.33;;
1471;SDS011;963;42.644;23.336;2022-12-18T05:33:24;12.77;;;8.73;;
1471;SDS011;963;42.644;23.336;2022-12-18T05:35:55;11.30;;;7.77;;
1471;SDS011;963;42.644;23.336;2022-12-18T05:38:22;11.03;;;8.00;;
1471;SDS011;963;42.644;23.336;2022-12-18T05:40:49;10.10;;;7.27;;
1471;SDS011;963;42.644;23.336;2022-12-18T05:43:15;12.17;;;8.50;;
1471;SDS011;963;42.644;23.336;2022-12-18T05:45:42;12.63;;;8.43;;
1471;SDS011;963;42.644;23.336;2022-12-18T05:48:08;12.37;;;9.07;;
1471;SDS011;963;42.644;23.336;2022-12-18T05:50:37;9.20;;;7.03;;
1471;SDS011;963;42.644;23.336;2022-12-18T05:53:05;10.73;;;7.80;;
1471;SDS011;963;42.644;23.336;2022-12-18T05:55:34;10.33;;;8.03;;
1471;SDS011;963;42.644;23.336;2022-12-18T05:58:00;12.60;;;9.33;;
1471;SDS011;963;42.644;23.336;2022-12-18T06:00:26;14.80;;;8.80;;
1471;SDS011;963;42.644;23.336;2022-12-18T06:02:52;14.17;;;9.60;;
1471;SDS011;963;42.644;23.336;2022-12-18T06:05:17;17.17;;;9.30;;
1471;SDS011;963;42.644;23.336;2022-12-18T06:07:43;15.20;;;10.53;;
1471;SDS011;963;42.644;23.336;2022-12-18T06:10:08;11.83;;;8.10;;
1471;SDS011;963;42.644;23.336;2022-12-18T06:12:34;13.23;;;9.53;;
1471;SDS011;963;42.644;23.336;2022-12-18T06:14:59;12.87;;;9.20;;
1471;SDS011;963;42.644;23.336;2022-12-18T06:17:32;13.27;;;9.07;;
1471;SDS011;963;42.644;23.336;2022-12-18T06:19:59;12.17;;;9.00;;
1471;SDS011;963;42.644;23.336;2022-12-18T06:22:26;13.40;;;8.97;;
1471;SDS011;963;42.644;23.336;2022-12-18T06:24:52;12.47;;;9.00;;
1471;SDS011;963;42.644;23.336;2022-12-18T06:27:17;12.83;;;8.90;;
1471;SDS011;963;42.644;23.336;2022-12-18T06:29:43;11.60;;;8.93;;
1471;SDS011;963;42.644;23.336;2022-12-18T06:32:08;10.90;;;7.97;;
1471;SDS011;963;42.644;23.336;2022-12-18T06:34:34;14.07;;;9.07;;
1471;SDS011;963;42.644;23.336;2022-12-18T06:37:02;13.33;;;9.40;;
1471;SDS011;963;42.644;23.336;2022-12-18T06:39:27;13.40;;;9.17;;
1471;SDS011;963;42.644;23.336;2022-12-18T06:41:53;12.23;;;8.33;;
1471;SDS011;963;42.644;23.336;2022-12-18T06:44:18;12.30;;;9.50;;
1471;SDS011;963;42.644;23.336;2022-12-18T06:46:44;12.13;;;9.57;;
1471;SDS011;963;42.644;23.336;2022-12-18T06:49:09;13.13;;;9.20;;
1471;SDS011;963;42.644;23.336;2022-12-18T06:51:35;12.80;;;8.17;;
1471;SDS011;963;42.644;23.336;2022-12-18T06:54:01;12.13;;;9.00;;
1471;SDS011;963;42.644;23.336;2022-12-18T06:56:27;15.30;;;8.80;;
1471;SDS011;963;42.644;23.336;2022-12-18T06:58:53;13.63;;;9.23;;
1471;SDS011;963;42.644;23.336;2022-12-18T07:01:18;12.33;;;9.20;;
1471;SDS011;963;42.644;23.336;2022-12-18T07:03:44;12.97;;;9.60;;
1471;SDS011;963;42.644;23.336;2022-12-18T07:06:14;12.90;;;9.20;;
1471;SDS011;963;42.644;23.336;2022-12-18T07:08:41;13.13;;;8.80;;
1471;SDS011;963;42.644;23.336;2022-12-18T07:11:06;12.60;;;9.20;;
1471;SDS011;963;42.644;23.336;2022-12-18T07:13:32;12.97;;;8.70;;
1471;SDS011;963;42.644;23.336;2022-12-18T07:16:04;13.40;;;9.43;;
1471;SDS011;963;42.644;23.336;2022-12-18T07:18:34;13.60;;;9.37;;
1471;SDS011;963;42.644;23.336;2022-12-18T07:21:06;14.23;;;9.17;;
1471;SDS011;963;42.644;23.336;2022-12-18T07:23:33;13.47;;;9.50;;
1471;SDS011;963;42.644;23.336;2022-12-18T07:26:06;14.57;;;8.80;;
1471;SDS011;963;42.644;23.336;2022-12-18T07:28:34;12.10;;;9.70;;
1471;SDS011;963;42.644;23.336;2022-12-18T07:31:09;14.07;;;8.80;;
1471;SDS011;963;42.644;23.336;2022-12-18T07:33:36;16.47;;;9.80;;
1471;SDS011;963;42.644;23.336;2022-12-18T07:36:03;12.03;;;8.57;;
1471;SDS011;963;42.644;23.336;2022-12-18T07:38:30;14.97;;;9.80;;
1471;SDS011;963;42.644;23.336;2022-12-18T07:41:02;14.23;;;10.10;;
1471;SDS011;963;42.644;23.336;2022-12-18T07:43:28;13.50;;;10.13;;
1471;SDS011;963;42.644;23.336;2022-12-18T07:45:54;15.27;;;9.60;;
1471;SDS011;963;42.644;23.336;2022-12-18T07:48:19;13.60;;;9.60;;
1471;SDS011;963;42.644;23.336;2022-12-18T07:50:45;15.43;;;9.60;;
1471;SDS011;963;42.644;23.336;2022-12-18T07:53:10;16.00;;;9.70;;
1471;SDS011;963;42.644;23.336;2022-12-18T07:55:35;12.80;;;9.43;;
1471;SDS011;963;42.644;23.336;2022-12-18T07:58:02;15.63;;;10.00;;
1471;SDS011;963;42.644;23.336;2022-12-18T08:00:28;13.53;;;9.60;;
1471;SDS011;963;42.644;23.336;2022-12-18T08:02:53;13.83;;;9.87;;
1471;SDS011;963;42.644;23.336;2022-12-18T08:05:19;17.73;;;12.20;;
1471;SDS011;963;42.644;23.336;2022-12-18T08:07:45;14.80;;;10.40;;
1471;SDS011;963;42.644;23.336;2022-12-18T08:10:11;17.07;;;11.97;;
1471;SDS011;963;42.644;23.336;2022-12-18T08:12:37;16.87;;;11.27;;
1471;SDS011;963;42.644;23.336;2022-12-18T08:15:02;14.43;;;10.50;;
1471;SDS011;963;42.644;23.336;2022-12-18T08:17:28;17.40;;;11.37;;
1471;SDS011;963;42.644;23.336;2022-12-18T08:19:54;21.33;;;14.10;;
1471;SDS011;963;42.644;23.336;2022-12-18T08:22:19;20.33;;;14.27;;
1471;SDS011;963;42.644;23.336;2022-12-18T08:24:44;19.83;;;12.67;;
1471;SDS011;963;42.644;23.336;2022-12-18T08:27:10;15.13;;;11.70;;
1471;SDS011;963;42.644;23.336;2022-12-18T08:29:35;20.20;;;12.07;;
1471;SDS011;963;42.644;23.336;2022-12-18T08:32:01;17.90;;;12.27;;
1471;SDS011;963;42.644;23.336;2022-12-18T08:34:26;14.03;;;11.43;;
1471;SDS011;963;42.644;23.336;2022-12-18T08:36:51;19.23;;;12.17;;
1471;SDS011;963;42.644;23.336;2022-12-18T08:39:17;26.47;;;15.40;;
1471;SDS011;963;42.644;23.336;2022-12-18T08:41:42;20.10;;;12.60;;
1471;SDS011;963;42.644;23.336;2022-12-18T08:44:27;18.70;;;12.10;;
1471;SDS011;963;42.644;23.336;2022-12-18T08:47:02;16.63;;;11.77;;
1471;SDS011;963;42.644;23.336;2022-12-18T08:49:28;17.50;;;11.90;;
1471;SDS011;963;42.644;23.336;2022-12-18T08:51:54;16.67;;;11.70;;
1471;SDS011;963;42.644;23.336;2022-12-18T08:54:22;18.97;;;12.40;;
1471;SDS011;963;42.644;23.336;2022-12-18T08:56:48;21.93;;;12.40;;
1471;SDS011;963;42.644;23.336;2022-12-18T08:59:15;17.17;;;12.43;;
1471;SDS011;963;42.644;23.336;2022-12-18T09:01:41;17.10;;;11.17;;
1471;SDS011;963;42.644;23.336;2022-12-18T09:04:07;21.03;;;14.20;;
1471;SDS011;963;42.644;23.336;2022-12-18T09:06:34;18.53;;;13.30;;
1471;SDS011;963;42.644;23.336;2022-12-18T09:08:59;21.50;;;13.80;;
1471;SDS011;963;42.644;23.336;2022-12-18T09:11:26;23.43;;;14.13;;
1471;SDS011;963;42.644;23.336;2022-12-18T09:13:52;18.90;;;13.20;;
1471;SDS011;963;42.644;23.336;2022-12-18T09:16:19;20.70;;;14.90;;
1471;SDS011;963;42.644;23.336;2022-12-18T09:18:45;21.50;;;14.63;;
1471;SDS011;963;42.644;23.336;2022-12-18T09:21:12;23.40;;;15.57;;
1471;SDS011;963;42.644;23.336;2022-12-18T09:23:39;20.70;;;13.40;;
1471;SDS011;963;42.644;23.336;2022-12-18T09:26:05;18.83;;;14.20;;
1471;SDS011;963;42.644;23.336;2022-12-18T09:28:31;21.30;;;14.50;;
1471;SDS011;963;42.644;23.336;2022-12-18T09:30:56;21.27;;;14.03;;
1471;SDS011;963;42.644;23.336;2022-12-18T09:33:22;17.63;;;13.20;;
1471;SDS011;963;42.644;23.336;2022-12-18T09:35:47;22.23;;;14.30;;
1471;SDS011;963;42.644;23.336;2022-12-18T09:38:14;17.90;;;12.73;;
1471;SDS011;963;42.644;23.336;2022-12-18T09:40:43;26.23;;;14.90;;
1471;SDS011;963;42.644;23.336;2022-12-18T09:43:13;20.90;;;13.70;;
1471;SDS011;963;42.644;23.336;2022-12-18T09:45:44;17.60;;;12.73;;
1471;SDS011;963;42.644;23.336;2022-12-18T09:48:34;18.20;;;11.60;;
1471;SDS011;963;42.644;23.336;2022-12-18T09:51:50;18.40;;;12.60;;
1471;SDS011;963;42.644;23.336;2022-12-18T09:54:18;19.37;;;12.70;;
1471;SDS011;963;42.644;23.336;2022-12-18T09:56:48;18.07;;;10.83;;
1471;SDS011;963;42.644;23.336;2022-12-18T09:59:18;21.73;;;12.97;;
1471;SDS011;963;42.644;23.336;2022-12-18T10:01:48;17.00;;;12.10;;
1471;SDS011;963;42.644;23.336;2022-12-18T10:04:14;22.40;;;14.70;;
1471;SDS011;963;42.644;23.336;2022-12-18T10:12:02;18.73;;;12.63;;
1471;SDS011;963;42.644;23.336;2022-12-18T10:17:30;18.07;;;11.97;;
1471;SDS011;963;42.644;23.336;2022-12-18T10:22:30;17.60;;;11.07;;
1471;SDS011;963;42.644;23.336;2022-12-18T10:25:32;17.80;;;11.80;;
1471;SDS011;963;42.644;23.336;2022-12-18T10:28:07;22.23;;;12.90;;
1471;SDS011;963;42.644;23.336;2022-12-18T10:30:38;17.07;;;11.47;;
1471;SDS011;963;42.644;23.336;2022-12-18T10:33:04;17.03;;;11.17;;
1471;SDS011;963;42.644;23.336;2022-12-18T10:35:30;20.37;;;12.50;;
1471;SDS011;963;42.644;23.336;2022-12-18T10:38:03;20.97;;;11.50;;
1471;SDS011;963;42.644;23.336;2022-12-18T10:40:28;16.17;;;10.67;;
1471;SDS011;963;42.644;23.336;2022-12-18T10:43:04;19.17;;;12.50;;
1471;SDS011;963;42.644;23.336;2022-12-18T10:45:35;20.43;;;12.93;;
1471;SDS011;963;42.644;23.336;2022-12-18T10:48:00;17.50;;;11.23;;
1471;SDS011;963;42.644;23.336;2022-12-18T10:50:33;16.90;;;11.77;;
1471;SDS011;963;42.644;23.336;2022-12-18T10:53:01;22.73;;;11.53;;
1471;SDS011;963;42.644;23.336;2022-12-18T10:55:34;13.80;;;10.13;;
1471;SDS011;963;42.644;23.336;2022-12-18T11:03:58;16.50;;;11.70;;
1471;SDS011;963;42.644;23.336;2022-12-18T11:06:26;16.33;;;11.20;;
1471;SDS011;963;42.644;23.336;2022-12-18T11:11:28;17.03;;;11.37;;
1471;SDS011;963;42.644;23.336;2022-12-18T11:14:11;19.03;;;12.50;;
1471;SDS011;963;42.644;23.336;2022-12-18T11:16:44;16.93;;;10.30;;
1471;SDS011;963;42.644;23.336;2022-12-18T11:19:22;17.97;;;11.30;;
1471;SDS011;963;42.644;23.336;2022-12-18T11:22:26;15.70;;;10.57;;
1471;SDS011;963;42.644;23.336;2022-12-18T11:24:55;18.70;;;11.20;;
1471;SDS011;963;42.644;23.336;2022-12-18T11:27:26;17.57;;;11.77;;
1471;SDS011;963;42.644;23.336;2022-12-18T11:29:53;17.03;;;11.70;;
1471;SDS011;963;42.644;23.336;2022-12-18T11:32:46;20.57;;;12.67;;
1471;SDS011;963;42.644;23.336;2022-12-18T11:40:58;16.30;;;10.83;;
1471;SDS011;963;42.644;23.336;2022-12-18T11:46:06;16.27;;;10.67;;
1471;SDS011;963;42.644;23.336;2022-12-18T11:48:41;15.70;;;10.53;;
1471;SDS011;963;42.644;23.336;2022-12-18T11:51:14;13.23;;;9.10;;
1471;SDS011;963;42.644;23.336;2022-12-18T11:53:46;12.37;;;9.10;;
1471;SDS011;963;42.644;23.336;2022-12-18T11:56:29;13.03;;;9.10;;
1471;SDS011;963;42.644;23.336;2022-12-18T11:59:01;24.27;;;16.10;;
1471;SDS011;963;42.644;23.336;2022-12-18T12:07:16;15.20;;;9.73;;
1471;SDS011;963;42.644;23.336;2022-12-18T12:12:59;20.03;;;11.37;;
1471;SDS011;963;42.644;23.336;2022-12-18T12:16:08;16.30;;;9.87;;
1471;SDS011;963;42.644;23.336;2022-12-18T12:18:46;14.83;;;10.53;;
1471;SDS011;963;42.644;23.336;2022-12-18T12:23:58;18.00;;;10.67;;
1471;SDS011;963;42.644;23.336;2022-12-18T12:40:14;15.53;;;11.10;;
1471;SDS011;963;42.644;23.336;2022-12-18T12:42:50;14.77;;;10.80;;
1471;SDS011;963;42.644;23.336;2022-12-18T12:45:46;18.63;;;12.60;;
1471;SDS011;963;42.644;23.336;2022-12-18T12:48:40;23.50;;;14.33;;
1471;SDS011;963;42.644;23.336;2022-12-18T12:53:51;19.17;;;13.20;;
1471;SDS011;963;42.644;23.336;2022-12-18T12:56:19;22.30;;;15.43;;
1471;SDS011;963;42.644;23.336;2022-12-18T12:59:04;22.40;;;15.33;;
1471;SDS011;963;42.644;23.336;2022-12-18T13:09:02;21.40;;;13.23;;
1471;SDS011;963;42.644;23.336;2022-12-18T13:14:22;24.53;;;14.00;;
1471;SDS011;963;42.644;23.336;2022-12-18T13:19:47;17.53;;;12.07;;
1471;SDS011;963;42.644;23.336;2022-12-18T13:22:57;21.80;;;12.60;;
1471;SDS011;963;42.644;23.336;2022-12-18T13:25:30;18.10;;;11.83;;
1471;SDS011;963;42.644;23.336;2022-12-18T13:35:42;18.30;;;12.73;;
1471;SDS011;963;42.644;23.336;2022-12-18T13:38:20;18.33;;;12.20;;
1471;SDS011;963;42.644;23.336;2022-12-18T13:40:56;20.10;;;12.80;;
1471;SDS011;963;42.644;23.336;2022-12-18T13:43:46;22.53;;;14.63;;
1471;SDS011;963;42.644;23.336;2022-12-18T13:46:23;19.50;;;13.50;;
1471;SDS011;963;42.644;23.336;2022-12-18T13:49:02;19.93;;;13.30;;
1471;SDS011;963;42.644;23.336;2022-12-18T13:51:46;20.40;;;13.23;;
1471;SDS011;963;42.644;23.336;2022-12-18T13:56:58;32.03;;;18.70;;
1471;SDS011;963;42.644;23.336;2022-12-18T13:59:24;25.40;;;16.13;;
1471;SDS011;963;42.644;23.336;2022-12-18T14:04:29;20.70;;;14.40;;
1471;SDS011;963;42.644;23.336;2022-12-18T14:07:12;18.30;;;12.93;;
1471;SDS011;963;42.644;23.336;2022-12-18T14:09:42;18.20;;;11.93;;
1471;SDS011;963;42.644;23.336;2022-12-18T14:17:50;18.00;;;11.93;;
1471;SDS011;963;42.644;23.336;2022-12-18T14:20:17;19.00;;;13.00;;
1471;SDS011;963;42.644;23.336;2022-12-18T14:22:46;16.13;;;11.20;;
1471;SDS011;963;42.644;23.336;2022-12-18T14:27:45;15.90;;;10.63;;
1471;SDS011;963;42.644;23.336;2022-12-18T14:30:26;16.77;;;11.50;;
1471;SDS011;963;42.644;23.336;2022-12-18T14:33:09;17.63;;;12.13;;
1471;SDS011;963;42.644;23.336;2022-12-18T14:35:40;20.03;;;12.80;;
1471;SDS011;963;42.644;23.336;2022-12-18T14:38:28;18.57;;;12.37;;
1471;SDS011;963;42.644;23.336;2022-12-18T14:40:54;19.80;;;11.60;;
1471;SDS011;963;42.644;23.336;2022-12-18T14:43:24;18.80;;;12.60;;
1471;SDS011;963;42.644;23.336;2022-12-18T14:45:51;16.83;;;11.50;;
1471;SDS011;963;42.644;23.336;2022-12-18T14:48:21;18.87;;;11.97;;
1471;SDS011;963;42.644;23.336;2022-12-18T14:50:59;22.40;;;12.17;;
1471;SDS011;963;42.644;23.336;2022-12-18T14:56:27;16.03;;;11.23;;
1471;SDS011;963;42.644;23.336;2022-12-18T15:03:54;15.33;;;11.20;;
1471;SDS011;963;42.644;23.336;2022-12-18T15:06:26;16.13;;;10.57;;
1471;SDS011;963;42.644;23.336;2022-12-18T15:08:51;17.13;;;11.13;;
1471;SDS011;963;42.644;23.336;2022-12-18T15:11:28;17.67;;;11.80;;
1471;SDS011;963;42.644;23.336;2022-12-18T15:13:57;19.70;;;12.63;;
1471;SDS011;963;42.644;23.336;2022-12-18T15:16:23;19.13;;;12.80;;
1471;SDS011;963;42.644;23.336;2022-12-18T15:18:49;16.97;;;11.67;;
1471;SDS011;963;42.644;23.336;2022-12-18T15:21:18;16.70;;;10.93;;
1471;SDS011;963;42.644;23.336;2022-12-18T15:23:46;16.57;;;10.50;;
1471;SDS011;963;42.644;23.336;2022-12-18T15:26:15;17.97;;;11.80;;
1471;SDS011;963;42.644;23.336;2022-12-18T15:28:48;18.70;;;11.10;;
1471;SDS011;963;42.644;23.336;2022-12-18T15:31:32;18.40;;;10.80;;
1471;SDS011;963;42.644;23.336;2022-12-18T15:36:32;20.60;;;11.10;;
1471;SDS011;963;42.644;23.336;2022-12-18T15:39:01;15.43;;;10.20;;
1471;SDS011;963;42.644;23.336;2022-12-18T15:41:28;19.60;;;10.33;;
1471;SDS011;963;42.644;23.336;2022-12-18T15:43:59;16.37;;;10.93;;
1471;SDS011;963;42.644;23.336;2022-12-18T15:46:25;18.70;;;11.73;;
1471;SDS011;963;42.644;23.336;2022-12-18T15:48:52;17.10;;;10.40;;
1471;SDS011;963;42.644;23.336;2022-12-18T15:53:57;16.23;;;10.00;;
1471;SDS011;963;42.644;23.336;2022-12-18T15:56:24;16.00;;;10.63;;
1471;SDS011;963;42.644;23.336;2022-12-18T15:59:10;15.13;;;10.60;;
1471;SDS011;963;42.644;23.336;2022-12-18T16:01:37;17.33;;;10.13;;
1471;SDS011;963;42.644;23.336;2022-12-18T16:04:02;16.87;;;9.50;;
1471;SDS011;963;42.644;23.336;2022-12-18T16:06:28;15.70;;;10.53;;
1471;SDS011;963;42.644;23.336;2022-12-18T16:08:53;13.90;;;9.10;;
1471;SDS011;963;42.644;23.336;2022-12-18T16:11:23;16.33;;;10.40;;
1471;SDS011;963;42.644;23.336;2022-12-18T16:14:24;16.70;;;10.20;;
1471;SDS011;963;42.644;23.336;2022-12-18T16:16:55;24.87;;;14.30;;
1471;SDS011;963;42.644;23.336;2022-12-18T16:19:23;30.57;;;13.70;;
1471;SDS011;963;42.644;23.336;2022-12-18T16:21:49;48.80;;;22.73;;
1471;SDS011;963;42.644;23.336;2022-12-18T16:24:17;29.20;;;14.60;;
1471;SDS011;963;42.644;23.336;2022-12-18T16:26:44;19.70;;;11.70;;
1471;SDS011;963;42.644;23.336;2022-12-18T16:29:10;22.97;;;12.73;;
1471;SDS011;963;42.644;23.336;2022-12-18T16:31:36;19.50;;;12.03;;
1471;SDS011;963;42.644;23.336;2022-12-18T16:36:52;24.13;;;13.33;;
1471;SDS011;963;42.644;23.336;2022-12-18T16:39:19;18.37;;;12.20;;
1471;SDS011;963;42.644;23.336;2022-12-18T16:41:45;18.40;;;11.90;;
1471;SDS011;963;42.644;23.336;2022-12-18T16:44:10;20.30;;;11.63;;
1471;SDS011;963;42.644;23.336;2022-12-18T16:46:37;37.73;;;23.50;;
1471;SDS011;963;42.644;23.336;2022-12-18T16:49:03;50.07;;;32.40;;
1471;SDS011;963;42.644;23.336;2022-12-18T16:51:28;23.47;;;14.17;;
1471;SDS011;963;42.644;23.336;2022-12-18T16:53:54;39.70;;;22.20;;
1471;SDS011;963;42.644;23.336;2022-12-18T16:56:20;17.53;;;12.30;;
1471;SDS011;963;42.644;23.336;2022-12-18T16:58:52;20.77;;;13.13;;
1471;SDS011;963;42.644;23.336;2022-12-18T17:01:19;16.33;;;10.53;;
1471;SDS011;963;42.644;23.336;2022-12-18T17:03:52;14.90;;;10.43;;
1471;SDS011;963;42.644;23.336;2022-12-18T17:06:20;18.07;;;11.00;;
1471;SDS011;963;42.644;23.336;2022-12-18T17:08:46;24.53;;;11.50;;
1471;SDS011;963;42.644;23.336;2022-12-18T17:11:11;20.80;;;12.43;;
1471;SDS011;963;42.644;23.336;2022-12-18T17:13:37;20.40;;;12.50;;
1471;SDS011;963;42.644;23.336;2022-12-18T17:16:03;18.33;;;12.53;;
1471;SDS011;963;42.644;23.336;2022-12-18T17:18:32;19.90;;;11.17;;
1471;SDS011;963;42.644;23.336;2022-12-18T17:21:02;16.70;;;11.13;;
1471;SDS011;963;42.644;23.336;2022-12-18T17:23:30;19.07;;;11.60;;
1471;SDS011;963;42.644;23.336;2022-12-18T17:25:56;16.40;;;10.60;;
1471;SDS011;963;42.644;23.336;2022-12-18T17:28:23;19.07;;;11.67;;
1471;SDS011;963;42.644;23.336;2022-12-18T17:30:50;19.80;;;11.20;;
1471;SDS011;963;42.644;23.336;2022-12-18T17:33:19;41.40;;;25.10;;
1471;SDS011;963;42.644;23.336;2022-12-18T17:35:45;29.87;;;17.97;;